sensor_id;sensor_type;location;lat;lon;timestamp;P1;durP1;ratioP1;P2;durP2;ratioP2
33993;SDS011;20673;48.980;8.138;2023-06-10T00:01:04;6.97;;;6.40;;
33993;SDS011;20673;48.980;8.138;2023-06-10T00:03:30;9.40;;;6.87;;
33993;SDS011;20673;48.980;8.138;2023-06-10T00:05:56;8.07;;;7.27;;
33993;SDS011;20673;48.980;8.138;2023-06-10T00:08:22;9.97;;;8.03;;
33993;SDS011;20673;48.980;8.138;2023-06-10T00:10:48;8.80;;;7.00;;
33993;SDS011;20673;48.980;8.138;2023-06-10T00:13:14;8.03;;;7.27;;
33993;SDS011;20673;48.980;8.138;2023-06-10T00:15:42;7.43;;;6.73;;
33993;SDS011;20673;48.980;8.138;2023-06-10T00:18:08;7.42;;;6.72;;
33993;SDS011;20673;48.980;8.138;2023-06-10T00:20:35;8.00;;;7.20;;
33993;SDS011;20673;48.980;8.138;2023-06-10T00:23:03;8.97;;;7.37;;
33993;SDS011;20673;48.980;8.138;2023-06-10T00:25:31;9.23;;;7.45;;
33993;SDS011;20673;48.980;8.138;2023-06-10T00:27:58;8.27;;;7.43;;
33993;SDS011;20673;48.980;8.138;2023-06-10T00:30:24;7.60;;;6.90;;
33993;SDS011;20673;48.980;8.138;2023-06-10T00:32:50;9.57;;;7.13;;
33993;SDS011;20673;48.980;8.138;2023-06-10T00:35:16;12.30;;;7.65;;
33993;SDS011;20673;48.980;8.138;2023-06-10T00:37:43;8.70;;;7.87;;
33993;SDS011;20673;48.980;8.138;2023-06-10T00:40:09;8.48;;;7.62;;
33993;SDS011;20673;48.980;8.138;2023-06-10T00:42:36;8.23;;;7.27;;
33993;SDS011;20673;48.980;8.138;2023-06-10T00:45:03;9.53;;;7.17;;
33993;SDS011;20673;48.980;8.138;2023-06-10T00:47:31;8.07;;;7.27;;
33993;SDS011;20673;48.980;8.138;2023-06-10T00:49:57;8.75;;;7.83;;
33993;SDS011;20673;48.980;8.138;2023-06-10T00:52:24;8.73;;;6.83;;
33993;SDS011;20673;48.980;8.138;2023-06-10T00:54:55;9.00;;;7.53;;
33993;SDS011;20673;48.980;8.138;2023-06-10T00:57:21;8.67;;;7.37;;
33993;SDS011;20673;48.980;8.138;2023-06-10T00:59:48;9.00;;;8.10;;
33993;SDS011;20673;48.980;8.138;2023-06-10T01:02:15;8.87;;;7.97;;
33993;SDS011;20673;48.980;8.138;2023-06-10T01:04:42;8.57;;;7.73;;
33993;SDS011;20673;48.980;8.138;2023-06-10T01:10:13;9.30;;;8.40;;
33993;SDS011;20673;48.980;8.138;2023-06-10T01:13:09;9.50;;;8.50;;
33993;SDS011;20673;48.980;8.138;2023-06-10T01:15:37;10.23;;;7.83;;
33993;SDS011;20673;48.980;8.138;2023-06-10T01:18:04;8.93;;;8.13;;
33993;SDS011;20673;48.980;8.138;2023-06-10T01:20:35;8.73;;;7.90;;
33993;SDS011;20673;48.980;8.138;2023-06-10T01:23:05;9.67;;;8.57;;
33993;SDS011;20673;48.980;8.138;2023-06-10T01:25:35;9.97;;;7.77;;
33993;SDS011;20673;48.980;8.138;2023-06-10T01:34:12;11.83;;;8.53;;
33993;SDS011;20673;48.980;8.138;2023-06-10T01:36:42;9.17;;;8.27;;
33993;SDS011;20673;48.980;8.138;2023-06-10T01:39:14;10.00;;;8.75;;
33993;SDS011;20673;48.980;8.138;2023-06-10T01:41:42;10.27;;;8.63;;
33993;SDS011;20673;48.980;8.138;2023-06-10T01:44:09;8.73;;;7.93;;
33993;SDS011;20673;48.980;8.138;2023-06-10T01:46:36;9.53;;;8.58;;
33993;SDS011;20673;48.980;8.138;2023-06-10T01:49:02;9.57;;;8.67;;
33993;SDS011;20673;48.980;8.138;2023-06-10T01:51:28;11.53;;;8.53;;
33993;SDS011;20673;48.980;8.138;2023-06-10T01:53:56;10.63;;;9.07;;
33993;SDS011;20673;48.980;8.138;2023-06-10T01:56:22;9.80;;;8.80;;
33993;SDS011;20673;48.980;8.138;2023-06-10T01:58:48;9.33;;;8.53;;
33993;SDS011;20673;48.980;8.138;2023-06-10T02:01:14;9.47;;;8.67;;
33993;SDS011;20673;48.980;8.138;2023-06-10T02:03:41;9.57;;;8.47;;
33993;SDS011;20673;48.980;8.138;2023-06-10T02:06:07;9.63;;;8.73;;
33993;SDS011;20673;48.980;8.138;2023-06-10T02:08:33;9.63;;;8.78;;
33993;SDS011;20673;48.980;8.138;2023-06-10T02:11:00;9.97;;;9.00;;
33993;SDS011;20673;48.980;8.138;2023-06-10T02:13:26;9.93;;;8.93;;
33993;SDS011;20673;48.980;8.138;2023-06-10T02:15:52;9.30;;;8.40;;
33993;SDS011;20673;48.980;8.138;2023-06-10T02:18:19;9.83;;;8.77;;
33993;SDS011;20673;48.980;8.138;2023-06-10T02:20:46;11.37;;;9.17;;
33993;SDS011;20673;48.980;8.138;2023-06-10T02:23:12;9.87;;;8.73;;
33993;SDS011;20673;48.980;8.138;2023-06-10T02:25:38;10.10;;;9.10;;
33993;SDS011;20673;48.980;8.138;2023-06-10T02:28:05;9.83;;;8.93;;
33993;SDS011;20673;48.980;8.138;2023-06-10T02:30:31;10.03;;;9.03;;
33993;SDS011;20673;48.980;8.138;2023-06-10T02:32:57;10.17;;;8.40;;
33993;SDS011;20673;48.980;8.138;2023-06-10T02:35:24;11.40;;;9.17;;
33993;SDS011;20673;48.980;8.138;2023-06-10T02:37:50;10.23;;;9.17;;
33993;SDS011;20673;48.980;8.138;2023-06-10T02:40:16;10.80;;;9.50;;
33993;SDS011;20673;48.980;8.138;2023-06-10T02:42:42;10.47;;;7.97;;
33993;SDS011;20673;48.980;8.138;2023-06-10T02:45:09;9.48;;;8.15;;
33993;SDS011;20673;48.980;8.138;2023-06-10T02:47:37;12.50;;;9.40;;
33993;SDS011;20673;48.980;8.138;2023-06-10T02:50:05;9.75;;;8.75;;
33993;SDS011;20673;48.980;8.138;2023-06-10T02:52:32;9.70;;;8.70;;
33993;SDS011;20673;48.980;8.138;2023-06-10T02:54:58;9.97;;;8.93;;
33993;SDS011;20673;48.980;8.138;2023-06-10T02:57:24;8.93;;;8.13;;
33993;SDS011;20673;48.980;8.138;2023-06-10T02:59:51;10.37;;;8.63;;
33993;SDS011;20673;48.980;8.138;2023-06-10T03:02:18;8.97;;;8.03;;
33993;SDS011;20673;48.980;8.138;2023-06-10T03:04:45;9.57;;;8.63;;
33993;SDS011;20673;48.980;8.138;2023-06-10T03:07:11;9.23;;;8.40;;
33993;SDS011;20673;48.980;8.138;2023-06-10T03:09:37;9.43;;;8.53;;
33993;SDS011;20673;48.980;8.138;2023-06-10T03:12:04;8.60;;;7.80;;
33993;SDS011;20673;48.980;8.138;2023-06-10T03:14:31;9.40;;;8.40;;
33993;SDS011;20673;48.980;8.138;2023-06-10T03:16:57;9.50;;;8.60;;
33993;SDS011;20673;48.980;8.138;2023-06-10T03:19:24;9.57;;;8.57;;
33993;SDS011;20673;48.980;8.138;2023-06-10T03:22:06;9.90;;;8.07;;
33993;SDS011;20673;48.980;8.138;2023-06-10T03:24:36;9.48;;;8.58;;
33993;SDS011;20673;48.980;8.138;2023-06-10T03:27:05;9.37;;;8.47;;
33993;SDS011;20673;48.980;8.138;2023-06-10T03:29:35;9.37;;;8.37;;
33993;SDS011;20673;48.980;8.138;2023-06-10T03:32:01;9.20;;;8.30;;
33993;SDS011;20673;48.980;8.138;2023-06-10T03:34:28;8.13;;;7.43;;
33993;SDS011;20673;48.980;8.138;2023-06-10T03:36:55;9.43;;;7.93;;
33993;SDS011;20673;48.980;8.138;2023-06-10T03:39:22;8.43;;;7.63;;
33993;SDS011;20673;48.980;8.138;2023-06-10T03:41:49;9.00;;;8.10;;
33993;SDS011;20673;48.980;8.138;2023-06-10T03:44:18;9.63;;;8.63;;
33993;SDS011;20673;48.980;8.138;2023-06-10T03:46:44;9.67;;;8.67;;
33993;SDS011;20673;48.980;8.138;2023-06-10T03:49:10;9.10;;;8.30;;
33993;SDS011;20673;48.980;8.138;2023-06-10T03:51:37;9.07;;;8.00;;
33993;SDS011;20673;48.980;8.138;2023-06-10T03:54:03;8.67;;;7.77;;
33993;SDS011;20673;48.980;8.138;2023-06-10T03:56:30;8.43;;;7.63;;
33993;SDS011;20673;48.980;8.138;2023-06-10T03:58:57;8.90;;;8.03;;
33993;SDS011;20673;48.980;8.138;2023-06-10T04:01:23;9.13;;;8.33;;
33993;SDS011;20673;48.980;8.138;2023-06-10T04:03:49;9.07;;;8.17;;
33993;SDS011;20673;48.980;8.138;2023-06-10T04:06:16;9.87;;;8.27;;
33993;SDS011;20673;48.980;8.138;2023-06-10T04:08:42;8.10;;;7.30;;
33993;SDS011;20673;48.980;8.138;2023-06-10T04:11:09;9.33;;;7.73;;
33993;SDS011;20673;48.980;8.138;2023-06-10T04:13:35;9.33;;;8.07;;
33993;SDS011;20673;48.980;8.138;2023-06-10T04:16:02;8.63;;;7.83;;
33993;SDS011;20673;48.980;8.138;2023-06-10T04:18:28;8.30;;;7.50;;
33993;SDS011;20673;48.980;8.138;2023-06-10T04:20:54;8.27;;;7.47;;
33993;SDS011;20673;48.980;8.138;2023-06-10T04:23:21;8.53;;;7.63;;
33993;SDS011;20673;48.980;8.138;2023-06-10T04:25:47;9.07;;;7.50;;
33993;SDS011;20673;48.980;8.138;2023-06-10T04:28:13;9.30;;;8.20;;
33993;SDS011;20673;48.980;8.138;2023-06-10T04:30:39;8.87;;;7.97;;
33993;SDS011;20673;48.980;8.138;2023-06-10T04:33:07;8.90;;;8.00;;
33993;SDS011;20673;48.980;8.138;2023-06-10T04:35:34;10.20;;;8.23;;
33993;SDS011;20673;48.980;8.138;2023-06-10T04:38:00;8.80;;;8.00;;
33993;SDS011;20673;48.980;8.138;2023-06-10T04:40:28;8.50;;;7.67;;
33993;SDS011;20673;48.980;8.138;2023-06-10T04:42:55;7.87;;;7.13;;
33993;SDS011;20673;48.980;8.138;2023-06-10T04:45:21;11.10;;;8.77;;
33993;SDS011;20673;48.980;8.138;2023-06-10T04:47:47;8.70;;;7.90;;
33993;SDS011;20673;48.980;8.138;2023-06-10T04:50:13;9.13;;;7.57;;
33993;SDS011;20673;48.980;8.138;2023-06-10T04:52:39;9.45;;;8.15;;
33993;SDS011;20673;48.980;8.138;2023-06-10T04:55:07;9.35;;;8.45;;
33993;SDS011;20673;48.980;8.138;2023-06-10T04:57:34;10.28;;;9.23;;
33993;SDS011;20673;48.980;8.138;2023-06-10T05:00:00;10.83;;;8.70;;
33993;SDS011;20673;48.980;8.138;2023-06-10T05:02:26;9.70;;;8.57;;
33993;SDS011;20673;48.980;8.138;2023-06-10T05:04:52;11.27;;;7.70;;
33993;SDS011;20673;48.980;8.138;2023-06-10T05:07:20;9.53;;;8.63;;
33993;SDS011;20673;48.980;8.138;2023-06-10T05:09:46;9.97;;;8.87;;
33993;SDS011;20673;48.980;8.138;2023-06-10T05:12:12;11.25;;;8.65;;
33993;SDS011;20673;48.980;8.138;2023-06-10T05:14:38;9.65;;;8.65;;
33993;SDS011;20673;48.980;8.138;2023-06-10T05:17:04;9.07;;;8.27;;
33993;SDS011;20673;48.980;8.138;2023-06-10T05:19:31;9.93;;;8.93;;
33993;SDS011;20673;48.980;8.138;2023-06-10T05:21:58;9.53;;;8.50;;
33993;SDS011;20673;48.980;8.138;2023-06-10T05:24:24;9.17;;;8.37;;
33993;SDS011;20673;48.980;8.138;2023-06-10T05:26:50;10.07;;;9.07;;
33993;SDS011;20673;48.980;8.138;2023-06-10T05:29:16;8.83;;;8.10;;
33993;SDS011;20673;48.980;8.138;2023-06-10T05:31:42;8.53;;;7.62;;
33993;SDS011;20673;48.980;8.138;2023-06-10T05:34:08;9.10;;;8.20;;
33993;SDS011;20673;48.980;8.138;2023-06-10T05:36:34;9.07;;;8.20;;
33993;SDS011;20673;48.980;8.138;2023-06-10T05:39:00;8.70;;;7.90;;
33993;SDS011;20673;48.980;8.138;2023-06-10T05:41:26;9.10;;;8.20;;
33993;SDS011;20673;48.980;8.138;2023-06-10T05:43:52;9.23;;;8.33;;
33993;SDS011;20673;48.980;8.138;2023-06-10T05:46:19;8.83;;;8.03;;
33993;SDS011;20673;48.980;8.138;2023-06-10T05:48:46;8.78;;;7.87;;
33993;SDS011;20673;48.980;8.138;2023-06-10T05:51:12;9.83;;;8.08;;
33993;SDS011;20673;48.980;8.138;2023-06-10T05:53:38;10.88;;;8.35;;
33993;SDS011;20673;48.980;8.138;2023-06-10T05:56:05;8.90;;;8.05;;
33993;SDS011;20673;48.980;8.138;2023-06-10T05:58:31;9.53;;;8.03;;
33993;SDS011;20673;48.980;8.138;2023-06-10T06:00:57;8.55;;;7.78;;
33993;SDS011;20673;48.980;8.138;2023-06-10T06:03:24;8.43;;;7.60;;
33993;SDS011;20673;48.980;8.138;2023-06-10T06:05:50;7.53;;;6.93;;
33993;SDS011;20673;48.980;8.138;2023-06-10T06:08:16;8.70;;;7.40;;
33993;SDS011;20673;48.980;8.138;2023-06-10T06:10:47;8.40;;;6.97;;
33993;SDS011;20673;48.980;8.138;2023-06-10T06:13:13;8.03;;;7.22;;
33993;SDS011;20673;48.980;8.138;2023-06-10T06:15:40;8.08;;;6.87;;
33993;SDS011;20673;48.980;8.138;2023-06-10T06:18:08;7.08;;;6.45;;
33993;SDS011;20673;48.980;8.138;2023-06-10T06:20:34;7.58;;;6.80;;
33993;SDS011;20673;48.980;8.138;2023-06-10T06:23:01;7.45;;;6.80;;
33993;SDS011;20673;48.980;8.138;2023-06-10T06:25:30;7.30;;;6.60;;
33993;SDS011;20673;48.980;8.138;2023-06-10T06:27:59;8.03;;;6.70;;
33993;SDS011;20673;48.980;8.138;2023-06-10T06:30:25;7.72;;;6.92;;
33993;SDS011;20673;48.980;8.138;2023-06-10T06:32:51;9.28;;;6.70;;
33993;SDS011;20673;48.980;8.138;2023-06-10T06:35:18;7.05;;;6.45;;
33993;SDS011;20673;48.980;8.138;2023-06-10T06:37:44;7.15;;;6.45;;
33993;SDS011;20673;48.980;8.138;2023-06-10T06:40:10;7.28;;;6.37;;
33993;SDS011;20673;48.980;8.138;2023-06-10T06:42:37;7.08;;;6.40;;
33993;SDS011;20673;48.980;8.138;2023-06-10T06:45:05;7.90;;;6.40;;
33993;SDS011;20673;48.980;8.138;2023-06-10T06:47:32;7.08;;;6.08;;
33993;SDS011;20673;48.980;8.138;2023-06-10T06:49:58;8.35;;;6.25;;
33993;SDS011;20673;48.980;8.138;2023-06-10T06:52:24;6.97;;;6.28;;
33993;SDS011;20673;48.980;8.138;2023-06-10T06:54:51;6.75;;;6.15;;
33993;SDS011;20673;48.980;8.138;2023-06-10T06:57:17;6.37;;;5.78;;
33993;SDS011;20673;48.980;8.138;2023-06-10T06:59:43;6.85;;;5.95;;
33993;SDS011;20673;48.980;8.138;2023-06-10T07:02:12;6.85;;;5.58;;
33993;SDS011;20673;48.980;8.138;2023-06-10T07:04:38;7.03;;;6.12;;
33993;SDS011;20673;48.980;8.138;2023-06-10T07:07:07;6.70;;;6.10;;
33993;SDS011;20673;48.980;8.138;2023-06-10T07:09:37;7.60;;;6.30;;
33993;SDS011;20673;48.980;8.138;2023-06-10T07:12:04;7.62;;;5.60;;
33993;SDS011;20673;48.980;8.138;2023-06-10T07:14:31;7.75;;;5.95;;
33993;SDS011;20673;48.980;8.138;2023-06-10T07:16:57;5.83;;;5.33;;
33993;SDS011;20673;48.980;8.138;2023-06-10T07:19:23;6.83;;;6.03;;
33993;SDS011;20673;48.980;8.138;2023-06-10T07:21:49;6.83;;;5.15;;
33993;SDS011;20673;48.980;8.138;2023-06-10T07:24:15;7.55;;;5.85;;
33993;SDS011;20673;48.980;8.138;2023-06-10T07:26:41;6.75;;;6.08;;
33993;SDS011;20673;48.980;8.138;2023-06-10T07:29:07;5.95;;;5.35;;
33993;SDS011;20673;48.980;8.138;2023-06-10T07:31:33;6.35;;;5.72;;
33993;SDS011;20673;48.980;8.138;2023-06-10T07:33:59;6.37;;;5.78;;
33993;SDS011;20673;48.980;8.138;2023-06-10T07:36:26;8.45;;;5.78;;
33993;SDS011;20673;48.980;8.138;2023-06-10T07:38:54;6.72;;;6.08;;
33993;SDS011;20673;48.980;8.138;2023-06-10T07:41:22;6.83;;;6.15;;
33993;SDS011;20673;48.980;8.138;2023-06-10T07:43:51;6.22;;;5.58;;
33993;SDS011;20673;48.980;8.138;2023-06-10T07:46:22;6.17;;;5.58;;
33993;SDS011;20673;48.980;8.138;2023-06-10T07:48:49;6.62;;;5.92;;
33993;SDS011;20673;48.980;8.138;2023-06-10T07:51:16;6.30;;;5.75;;
33993;SDS011;20673;48.980;8.138;2023-06-10T07:53:43;6.65;;;5.90;;
33993;SDS011;20673;48.980;8.138;2023-06-10T07:56:09;6.90;;;6.20;;
33993;SDS011;20673;48.980;8.138;2023-06-10T07:58:35;8.10;;;5.72;;
33993;SDS011;20673;48.980;8.138;2023-06-10T08:01:01;6.50;;;5.75;;
33993;SDS011;20673;48.980;8.138;2023-06-10T08:03:28;8.23;;;6.10;;
33993;SDS011;20673;48.980;8.138;2023-06-10T08:05:56;6.33;;;5.72;;
33993;SDS011;20673;48.980;8.138;2023-06-10T08:08:23;6.20;;;5.60;;
33993;SDS011;20673;48.980;8.138;2023-06-10T08:10:51;6.50;;;5.85;;
33993;SDS011;20673;48.980;8.138;2023-06-10T08:13:18;6.15;;;5.58;;
33993;SDS011;20673;48.980;8.138;2023-06-10T08:15:45;5.53;;;5.03;;
33993;SDS011;20673;48.980;8.138;2023-06-10T08:18:13;6.00;;;5.50;;
33993;SDS011;20673;48.980;8.138;2023-06-10T08:20:39;5.95;;;5.50;;
33993;SDS011;20673;48.980;8.138;2023-06-10T08:23:05;7.90;;;5.62;;
33993;SDS011;20673;48.980;8.138;2023-06-10T08:25:31;6.10;;;5.50;;
33993;SDS011;20673;48.980;8.138;2023-06-10T08:27:57;6.50;;;5.28;;
33993;SDS011;20673;48.980;8.138;2023-06-10T08:30:23;6.30;;;5.62;;
33993;SDS011;20673;48.980;8.138;2023-06-10T08:32:50;7.15;;;5.80;;
33993;SDS011;20673;48.980;8.138;2023-06-10T08:35:17;5.95;;;5.42;;
33993;SDS011;20673;48.980;8.138;2023-06-10T08:37:43;5.62;;;5.12;;
33993;SDS011;20673;48.980;8.138;2023-06-10T08:40:10;5.62;;;4.87;;
33993;SDS011;20673;48.980;8.138;2023-06-10T08:45:12;5.47;;;5.03;;
33993;SDS011;20673;48.980;8.138;2023-06-10T08:47:42;5.78;;;5.20;;
33993;SDS011;20673;48.980;8.138;2023-06-10T08:50:11;5.47;;;4.97;;
33993;SDS011;20673;48.980;8.138;2023-06-10T08:52:38;6.37;;;4.80;;
33993;SDS011;20673;48.980;8.138;2023-06-10T08:57:47;5.72;;;5.20;;
33993;SDS011;20673;48.980;8.138;2023-06-10T09:00:15;6.17;;;5.00;;
33993;SDS011;20673;48.980;8.138;2023-06-10T09:02:42;5.95;;;5.35;;
33993;SDS011;20673;48.980;8.138;2023-06-10T09:05:09;6.47;;;5.37;;
33993;SDS011;20673;48.980;8.138;2023-06-10T09:07:36;6.17;;;5.35;;
33993;SDS011;20673;48.980;8.138;2023-06-10T09:10:04;5.83;;;5.22;;
33993;SDS011;20673;48.980;8.138;2023-06-10T09:12:35;6.03;;;4.95;;
33993;SDS011;20673;48.980;8.138;2023-06-10T09:15:03;5.10;;;4.70;;
33993;SDS011;20673;48.980;8.138;2023-06-10T09:17:31;6.65;;;5.17;;
33993;SDS011;20673;48.980;8.138;2023-06-10T09:19:59;5.92;;;5.25;;
33993;SDS011;20673;48.980;8.138;2023-06-10T09:22:28;5.25;;;4.75;;
33993;SDS011;20673;48.980;8.138;2023-06-10T09:27:47;5.30;;;4.78;;
33993;SDS011;20673;48.980;8.138;2023-06-10T09:30:39;5.28;;;4.78;;
33993;SDS011;20673;48.980;8.138;2023-06-10T09:32:54;5.28;;;4.78;;
33993;SDS011;20673;48.980;8.138;2023-06-10T09:35:24;7.40;;;5.85;;
33993;SDS011;20673;48.980;8.138;2023-06-10T09:37:52;13.03;;;5.30;;
33993;SDS011;20673;48.980;8.138;2023-06-10T09:40:23;5.20;;;4.70;;
33993;SDS011;20673;48.980;8.138;2023-06-10T09:42:57;8.20;;;5.08;;
33993;SDS011;20673;48.980;8.138;2023-06-10T09:45:31;16.70;;;6.15;;
33993;SDS011;20673;48.980;8.138;2023-06-10T09:47:58;13.13;;;5.28;;
33993;SDS011;20673;48.980;8.138;2023-06-10T09:50:25;5.30;;;4.75;;
33993;SDS011;20673;48.980;8.138;2023-06-10T09:52:54;31.87;;;6.17;;
33993;SDS011;20673;48.980;8.138;2023-06-10T09:55:23;6.28;;;4.78;;
33993;SDS011;20673;48.980;8.138;2023-06-10T09:57:49;6.62;;;5.50;;
33993;SDS011;20673;48.980;8.138;2023-06-10T10:00:21;31.70;;;6.75;;
33993;SDS011;20673;48.980;8.138;2023-06-10T10:02:49;4.75;;;4.35;;
33993;SDS011;20673;48.980;8.138;2023-06-10T10:05:18;6.03;;;4.40;;
33993;SDS011;20673;48.980;8.138;2023-06-10T10:07:47;5.70;;;5.20;;
33993;SDS011;20673;48.980;8.138;2023-06-10T10:10:14;5.87;;;5.17;;
33993;SDS011;20673;48.980;8.138;2023-06-10T10:12:43;5.72;;;5.12;;
33993;SDS011;20673;48.980;8.138;2023-06-10T10:15:15;5.40;;;4.90;;
33993;SDS011;20673;48.980;8.138;2023-06-10T10:17:49;8.50;;;5.15;;
33993;SDS011;20673;48.980;8.138;2023-06-10T10:20:37;5.87;;;5.12;;
33993;SDS011;20673;48.980;8.138;2023-06-10T10:23:07;7.30;;;5.25;;
33993;SDS011;20673;48.980;8.138;2023-06-10T10:25:40;5.60;;;5.10;;
33993;SDS011;20673;48.980;8.138;2023-06-10T10:28:12;5.97;;;5.37;;
33993;SDS011;20673;48.980;8.138;2023-06-10T10:30:42;5.62;;;4.97;;
33993;SDS011;20673;48.980;8.138;2023-06-10T10:35:49;6.08;;;5.53;;
33993;SDS011;20673;48.980;8.138;2023-06-10T10:38:17;6.00;;;5.15;;
33993;SDS011;20673;48.980;8.138;2023-06-10T10:40:43;6.72;;;5.35;;
33993;SDS011;20673;48.980;8.138;2023-06-10T10:43:12;5.72;;;5.22;;
33993;SDS011;20673;48.980;8.138;2023-06-10T10:45:40;6.33;;;5.47;;
33993;SDS011;20673;48.980;8.138;2023-06-10T10:48:09;6.05;;;5.55;;
33993;SDS011;20673;48.980;8.138;2023-06-10T10:50:37;6.25;;;5.53;;
33993;SDS011;20673;48.980;8.138;2023-06-10T10:53:04;6.80;;;5.05;;
33993;SDS011;20673;48.980;8.138;2023-06-10T10:55:31;5.33;;;4.83;;
33993;SDS011;20673;48.980;8.138;2023-06-10T10:57:59;5.37;;;4.90;;
33993;SDS011;20673;48.980;8.138;2023-06-10T11:00:37;5.83;;;5.22;;
33993;SDS011;20673;48.980;8.138;2023-06-10T11:03:15;6.08;;;5.10;;
33993;SDS011;20673;48.980;8.138;2023-06-10T11:05:46;6.10;;;5.60;;
33993;SDS011;20673;48.980;8.138;2023-06-10T11:11:00;9.15;;;6.42;;
33993;SDS011;20673;48.980;8.138;2023-06-10T11:13:28;7.05;;;6.10;;
33993;SDS011;20673;48.980;8.138;2023-06-10T11:15:58;14.78;;;7.47;;
33993;SDS011;20673;48.980;8.138;2023-06-10T11:23:32;8.03;;;5.20;;
33993;SDS011;20673;48.980;8.138;2023-06-10T11:26:16;7.30;;;5.30;;
33993;SDS011;20673;48.980;8.138;2023-06-10T11:31:30;6.05;;;4.80;;
33993;SDS011;20673;48.980;8.138;2023-06-10T11:34:06;5.12;;;4.00;;
33993;SDS011;20673;48.980;8.138;2023-06-10T11:36:34;7.65;;;4.53;;
33993;SDS011;20673;48.980;8.138;2023-06-10T11:39:10;4.62;;;4.20;;
33993;SDS011;20673;48.980;8.138;2023-06-10T11:41:38;12.00;;;5.95;;
33993;SDS011;20673;48.980;8.138;2023-06-10T11:44:09;4.87;;;4.50;;
33993;SDS011;20673;48.980;8.138;2023-06-10T11:46:38;5.78;;;4.55;;
33993;SDS011;20673;48.980;8.138;2023-06-10T11:49:06;5.37;;;4.62;;
33993;SDS011;20673;48.980;8.138;2023-06-10T11:51:33;4.75;;;4.17;;
33993;SDS011;20673;48.980;8.138;2023-06-10T11:54:02;4.47;;;4.10;;
33993;SDS011;20673;48.980;8.138;2023-06-10T11:56:30;6.97;;;4.50;;
33993;SDS011;20673;48.980;8.138;2023-06-10T11:59:01;6.15;;;4.53;;
33993;SDS011;20673;48.980;8.138;2023-06-10T12:01:32;6.22;;;4.45;;
33993;SDS011;20673;48.980;8.138;2023-06-10T12:04:13;4.45;;;4.05;;
33993;SDS011;20673;48.980;8.138;2023-06-10T12:11:58;5.33;;;4.78;;
33993;SDS011;20673;48.980;8.138;2023-06-10T12:14:52;10.98;;;10.13;;
33993;SDS011;20673;48.980;8.138;2023-06-10T12:20:03;5.03;;;4.62;;
33993;SDS011;20673;48.980;8.138;2023-06-10T12:22:42;8.68;;;6.70;;
33993;SDS011;20673;48.980;8.138;2023-06-10T12:25:10;4.50;;;4.10;;
33993;SDS011;20673;48.980;8.138;2023-06-10T12:27:37;6.58;;;5.95;;
33993;SDS011;20673;48.980;8.138;2023-06-10T12:30:06;4.90;;;4.00;;
33993;SDS011;20673;48.980;8.138;2023-06-10T12:32:40;6.05;;;4.67;;
33993;SDS011;20673;48.980;8.138;2023-06-10T12:35:09;5.00;;;4.58;;
33993;SDS011;20673;48.980;8.138;2023-06-10T12:37:43;4.72;;;4.33;;
33993;SDS011;20673;48.980;8.138;2023-06-10T12:40:07;7.03;;;4.17;;
33993;SDS011;20673;48.980;8.138;2023-06-10T12:42:35;4.45;;;4.03;;
33993;SDS011;20673;48.980;8.138;2023-06-10T12:45:02;4.37;;;4.08;;
33993;SDS011;20673;48.980;8.138;2023-06-10T12:47:37;5.12;;;4.10;;
33993;SDS011;20673;48.980;8.138;2023-06-10T12:50:03;4.45;;;4.05;;
33993;SDS011;20673;48.980;8.138;2023-06-10T12:52:31;5.00;;;3.80;;
33993;SDS011;20673;48.980;8.138;2023-06-10T12:54:58;4.78;;;3.77;;
33993;SDS011;20673;48.980;8.138;2023-06-10T12:57:25;5.12;;;3.83;;
33993;SDS011;20673;48.980;8.138;2023-06-10T12:59:53;4.00;;;3.70;;
33993;SDS011;20673;48.980;8.138;2023-06-10T13:02:20;4.50;;;4.10;;
33993;SDS011;20673;48.980;8.138;2023-06-10T13:04:50;4.75;;;4.28;;
33993;SDS011;20673;48.980;8.138;2023-06-10T13:07:19;5.22;;;3.85;;
33993;SDS011;20673;48.980;8.138;2023-06-10T13:09:45;4.95;;;4.30;;
33993;SDS011;20673;48.980;8.138;2023-06-10T13:12:13;6.55;;;4.08;;
33993;SDS011;20673;48.980;8.138;2023-06-10T13:14:39;3.77;;;3.47;;
33993;SDS011;20673;48.980;8.138;2023-06-10T13:17:05;4.35;;;3.95;;
33993;SDS011;20673;48.980;8.138;2023-06-10T13:19:32;4.45;;;4.05;;
33993;SDS011;20673;48.980;8.138;2023-06-10T13:21:59;4.50;;;4.10;;
33993;SDS011;20673;48.980;8.138;2023-06-10T13:24:26;4.37;;;4.03;;
33993;SDS011;20673;48.980;8.138;2023-06-10T13:26:54;4.12;;;3.80;;
33993;SDS011;20673;48.980;8.138;2023-06-10T13:29:21;5.15;;;3.98;;
33993;SDS011;20673;48.980;8.138;2023-06-10T13:31:48;6.40;;;3.98;;
33993;SDS011;20673;48.980;8.138;2023-06-10T13:34:14;4.00;;;3.70;;
33993;SDS011;20673;48.980;8.138;2023-06-10T13:36:40;4.33;;;3.92;;
33993;SDS011;20673;48.980;8.138;2023-06-10T13:39:07;4.20;;;3.90;;
33993;SDS011;20673;48.980;8.138;2023-06-10T13:41:33;5.30;;;4.10;;
33993;SDS011;20673;48.980;8.138;2023-06-10T13:44:00;3.72;;;3.42;;
33993;SDS011;20673;48.980;8.138;2023-06-10T13:46:27;12.00;;;4.00;;
33993;SDS011;20673;48.980;8.138;2023-06-10T13:48:53;4.15;;;3.65;;
33993;SDS011;20673;48.980;8.138;2023-06-10T13:51:19;5.37;;;4.00;;
33993;SDS011;20673;48.980;8.138;2023-06-10T13:53:45;4.28;;;3.90;;
33993;SDS011;20673;48.980;8.138;2023-06-10T13:56:11;5.00;;;4.12;;
33993;SDS011;20673;48.980;8.138;2023-06-10T13:58:38;5.30;;;4.20;;
33993;SDS011;20673;48.980;8.138;2023-06-10T14:01:06;7.85;;;4.10;;
33993;SDS011;20673;48.980;8.138;2023-06-10T14:03:33;5.28;;;3.85;;
33993;SDS011;20673;48.980;8.138;2023-06-10T14:05:59;4.72;;;4.20;;
33993;SDS011;20673;48.980;8.138;2023-06-10T14:08:25;4.75;;;4.35;;
33993;SDS011;20673;48.980;8.138;2023-06-10T14:10:52;4.60;;;4.20;;
33993;SDS011;20673;48.980;8.138;2023-06-10T14:13:18;4.45;;;3.90;;
33993;SDS011;20673;48.980;8.138;2023-06-10T14:15:44;5.00;;;4.55;;
33993;SDS011;20673;48.980;8.138;2023-06-10T14:18:11;4.60;;;4.20;;
33993;SDS011;20673;48.980;8.138;2023-06-10T14:20:37;4.80;;;4.40;;
33993;SDS011;20673;48.980;8.138;2023-06-10T14:23:03;4.85;;;4.35;;
33993;SDS011;20673;48.980;8.138;2023-06-10T14:25:30;9.30;;;7.50;;
33993;SDS011;20673;48.980;8.138;2023-06-10T14:27:56;4.80;;;4.40;;
33993;SDS011;20673;48.980;8.138;2023-06-10T14:30:25;5.87;;;4.42;;
33993;SDS011;20673;48.980;8.138;2023-06-10T14:32:51;8.75;;;6.45;;
33993;SDS011;20673;48.980;8.138;2023-06-10T14:35:17;4.87;;;4.40;;
33993;SDS011;20673;48.980;8.138;2023-06-10T14:37:46;6.03;;;4.10;;
33993;SDS011;20673;48.980;8.138;2023-06-10T14:40:13;6.05;;;4.17;;
33993;SDS011;20673;48.980;8.138;2023-06-10T14:42:39;5.37;;;4.80;;
33993;SDS011;20673;48.980;8.138;2023-06-10T14:45:08;4.67;;;4.20;;
33993;SDS011;20673;48.980;8.138;2023-06-10T14:47:35;4.30;;;3.90;;
33993;SDS011;20673;48.980;8.138;2023-06-10T14:50:06;22.13;;;20.32;;
33993;SDS011;20673;48.980;8.138;2023-06-10T14:52:33;4.80;;;4.35;;
33993;SDS011;20673;48.980;8.138;2023-06-10T14:54:59;5.12;;;4.55;;
33993;SDS011;20673;48.980;8.138;2023-06-10T14:57:31;4.87;;;4.47;;
33993;SDS011;20673;48.980;8.138;2023-06-10T14:59:57;4.70;;;4.25;;
33993;SDS011;20673;48.980;8.138;2023-06-10T15:02:24;4.78;;;3.75;;
33993;SDS011;20673;48.980;8.138;2023-06-10T15:04:54;4.58;;;3.83;;
33993;SDS011;20673;48.980;8.138;2023-06-10T15:07:20;5.50;;;4.30;;
33993;SDS011;20673;48.980;8.138;2023-06-10T15:09:47;4.42;;;4.03;;
33993;SDS011;20673;48.980;8.138;2023-06-10T15:12:14;4.95;;;4.47;;
33993;SDS011;20673;48.980;8.138;2023-06-10T15:14:40;7.00;;;4.42;;
33993;SDS011;20673;48.980;8.138;2023-06-10T15:17:06;4.78;;;4.33;;
33993;SDS011;20673;48.980;8.138;2023-06-10T15:19:33;4.95;;;4.55;;
33993;SDS011;20673;48.980;8.138;2023-06-10T15:22:00;4.28;;;3.80;;
33993;SDS011;20673;48.980;8.138;2023-06-10T15:24:26;6.67;;;4.42;;
33993;SDS011;20673;48.980;8.138;2023-06-10T15:26:53;4.67;;;4.37;;